Albany, Georgia
Current Conditions -  °F | °C
As of 6:53 AM on Saturday 22 Nov 2014 (Local Time) from KABY Reporting Station
Few Clouds Few Clouds  
Wind Chill: 44°   Ceiling: Unl
Heat Index: 48°   Visibility: 10mi
Dew Point: 43°   Wind: 8mph
Humidity: 83%   Direction: 50°NE
Pressure: 30.39"   Gusts: NA
Location:  31.58°N, 84.15°W
Report Text: KABY 221153Z 05007KT 10SM FEW060 09/06 A3039 RMK AO2 SLP290 T00890061 10089 20044 53002 $
Loading
Personal Weather Stations






























Interactive Weather Map New forecast layout! Learn more

10-Day Weather Forecast

Advertisements
Track Severe Weather on mobile